Bradford, New York
Current Conditions -  °F | °C
As of 12:53 AM on Saturday 20 Dec 2014 (Local Time) from KELM Reporting Station
Overcast Overcast  
Wind Chill: 29°   Ceiling: 2000
Heat Index: 29°   Visibility: 10mi
Dew Point: 22°   Wind: 3mph
Humidity: 75%   Direction: 280°W
Pressure: 30.2"   Gusts: NA
Location:  42.37°N, 77.11°W
Report Text: KELM 200553Z AUTO 28003KT 10SM OVC020 M02/M06 A3020 RMK AO2 SLP239 T10171056 11017 21022 58004
Loading
Personal Weather Stations






























Interactive Weather Map New forecast layout! Learn more

10-Day Weather Forecast

Advertisements
Track Severe Weather on mobile